Terminal Aerodrome Forecast
Issued by NWS

Home | Current Version | Previous Version | Text Only | Print | Product List | Glossary On
Versions: 1 2 3 4 5 6 7 8 9 10 11 12 13 14 15 16 17 18 19 20
000
FTUS43 KPAH 022320
TAFOWB
TAF
KOWB 022320Z 0300/0324 32009KT P6SM BKN035
     FM030800 32004KT P6SM BKN015
     FM031600 31008KT P6SM OVC040=

USA.gov is the U.S. government's official web portal to all federal, state and local government web resources and services.